createdAt,value
2022-10-15T00:00:48.716Z,0
2022-10-15T00:01:49.400Z,0
2022-10-15T00:02:49.944Z,0
2022-10-15T00:03:50.598Z,0
2022-10-15T00:04:51.186Z,0
2022-10-15T00:05:51.782Z,0
2022-10-15T00:06:52.381Z,0
2022-10-15T00:07:52.972Z,0
2022-10-15T00:08:53.568Z,0
2022-10-15T00:09:54.165Z,0
2022-10-15T00:10:54.765Z,0
2022-10-15T00:11:55.359Z,0
2022-10-15T00:12:55.978Z,0
2022-10-15T00:13:56.553Z,0
2022-10-15T00:14:57.150Z,0
2022-10-15T00:15:57.747Z,0
2022-10-15T00:16:58.344Z,0
2022-10-15T00:17:58.962Z,0
2022-10-15T00:18:59.559Z,0
2022-10-15T00:20:00.153Z,0
2022-10-15T00:21:00.750Z,0
2022-10-15T00:23:01.946Z,0
2022-10-15T00:24:02.541Z,0
2022-10-15T00:25:03.138Z,0
2022-10-15T00:26:03.739Z,0
2022-10-15T00:27:04.330Z,0
2022-10-15T00:28:04.927Z,0
2022-10-15T00:29:05.590Z,0
2022-10-15T00:30:06.175Z,0
2022-10-15T00:31:06.773Z,0
2022-10-15T00:32:07.367Z,0
2022-10-15T00:33:07.965Z,0
2022-10-15T00:34:08.560Z,0
2022-10-15T00:35:09.162Z,0
2022-10-15T00:36:09.755Z,0
2022-10-15T00:37:10.351Z,0
2022-10-15T00:38:10.948Z,0
2022-10-15T00:39:11.543Z,0
2022-10-15T00:40:12.143Z,0
2022-10-15T00:41:12.745Z,0
2022-10-15T00:42:13.334Z,0
2022-10-15T00:43:13.933Z,0
2022-10-15T00:44:14.637Z,0
2022-10-15T00:45:15.147Z,0
2022-10-15T00:46:15.747Z,0
2022-10-15T00:47:16.353Z,0
2022-10-15T00:48:16.943Z,0
2022-10-15T00:49:17.538Z,0
2022-10-15T00:50:18.137Z,0
2022-10-15T00:51:18.733Z,0
2022-10-15T00:52:19.332Z,0
2022-10-15T00:53:19.928Z,0
2022-10-15T00:54:20.528Z,0
2022-10-15T00:55:21.124Z,0
2022-10-15T00:56:21.723Z,0
2022-10-15T00:57:22.319Z,0
2022-10-15T00:58:22.919Z,0
2022-10-15T00:59:23.514Z,0
2022-10-15T01:00:24.113Z,0
2022-10-15T01:01:24.751Z,0
2022-10-15T01:02:25.716Z,0
2022-10-15T01:03:26.432Z,0
2022-10-15T01:04:27.031Z,0
2022-10-15T01:05:27.626Z,0
2022-10-15T01:06:28.223Z,0
2022-10-15T01:07:28.843Z,0
2022-10-15T01:08:29.435Z,0
2022-10-15T01:09:30.030Z,0
2022-10-15T01:10:30.634Z,0
2022-10-15T01:11:31.224Z,0
2022-10-15T01:12:31.822Z,0
2022-10-15T01:13:32.419Z,0
2022-10-15T01:14:33.018Z,0
2022-10-15T01:15:33.617Z,0
2022-10-15T01:16:34.215Z,0
2022-10-15T01:17:34.856Z,0
2022-10-15T01:18:35.410Z,0
2022-10-15T01:19:36.008Z,0
2022-10-15T01:20:36.605Z,0
2022-10-15T01:21:37.203Z,0
2022-10-15T01:22:37.802Z,0
2022-10-15T01:23:38.400Z,0
2022-10-15T01:24:38.998Z,0
2022-10-15T01:25:39.597Z,0
2022-10-15T01:26:40.193Z,0
2022-10-15T01:27:40.789Z,0
2022-10-15T01:28:41.444Z,0
2022-10-15T01:29:42.000Z,0
2022-10-15T01:30:42.599Z,0
2022-10-15T01:31:43.195Z,0
2022-10-15T01:32:43.795Z,0
2022-10-15T01:33:44.392Z,0
2022-10-15T01:34:44.993Z,0
2022-10-15T01:35:45.589Z,0
2022-10-15T01:36:46.190Z,0
2022-10-15T01:37:46.786Z,0
2022-10-15T01:38:47.386Z,0
2022-10-15T01:39:48.004Z,0
2022-10-15T01:40:48.602Z,0
2022-10-15T01:41:49.199Z,0
2022-10-15T01:42:49.797Z,0
2022-10-15T01:43:50.396Z,0
2022-10-15T01:44:50.995Z,0
2022-10-15T01:45:51.593Z,0
2022-10-15T01:46:52.187Z,0
2022-10-15T01:47:52.789Z,0
2022-10-15T01:48:53.382Z,0
2022-10-15T01:49:53.982Z,0
2022-10-15T01:50:54.578Z,0
2022-10-15T01:51:55.182Z,0
2022-10-15T01:52:55.775Z,0
2022-10-15T01:53:56.372Z,0
2022-10-15T01:54:56.972Z,0
2022-10-15T01:55:57.576Z,0
2022-10-15T01:56:58.165Z,0
2022-10-15T01:57:58.763Z,0
2022-10-15T01:58:59.360Z,0
2022-10-15T01:59:59.960Z,0
2022-10-15T02:01:00.594Z,0
2022-10-15T02:02:01.167Z,0
2022-10-15T02:03:01.769Z,0
2022-10-15T02:04:02.368Z,0
2022-10-15T02:05:02.963Z,0
2022-10-15T02:06:03.561Z,0
2022-10-15T02:07:04.161Z,0
2022-10-15T02:08:04.757Z,0
2022-10-15T02:09:05.358Z,0
2022-10-15T02:10:05.955Z,0
2022-10-15T02:11:06.555Z,0
2022-10-15T02:12:07.154Z,0
2022-10-15T02:13:07.752Z,0
2022-10-15T02:14:08.350Z,0
2022-10-15T02:15:08.947Z,0
2022-10-15T02:16:09.545Z,0
2022-10-15T02:17:10.141Z,0
2022-10-15T02:18:10.741Z,0
2022-10-15T02:19:11.337Z,0
2022-10-15T02:20:11.935Z,0
2022-10-15T02:21:12.533Z,0
2022-10-15T02:22:13.131Z,0
2022-10-15T02:23:13.729Z,0
2022-10-15T02:24:14.327Z,0
2022-10-15T02:25:14.926Z,0
2022-10-15T02:26:15.523Z,0
2022-10-15T02:27:16.119Z,0
2022-10-15T02:28:16.750Z,0
2022-10-15T02:30:17.919Z,0
2022-10-15T02:31:18.514Z,0
2022-10-15T02:32:19.116Z,0
2022-10-15T02:33:19.731Z,0
2022-10-15T02:34:20.331Z,0
2022-10-15T02:35:20.927Z,0
2022-10-15T02:36:21.523Z,0
2022-10-15T02:37:22.120Z,0
2022-10-15T02:38:22.719Z,0
2022-10-15T02:39:23.316Z,0
2022-10-15T02:40:23.915Z,0
2022-10-15T02:41:24.510Z,0
2022-10-15T02:42:25.566Z,0
2022-10-15T02:43:26.304Z,0
2022-10-15T02:44:26.903Z,0
2022-10-15T02:45:27.499Z,0
2022-10-15T02:46:28.096Z,0
2022-10-15T02:47:28.732Z,0
2022-10-15T02:48:29.294Z,0
2022-10-15T02:49:29.887Z,0
2022-10-15T02:50:30.487Z,0
2022-10-15T02:51:31.083Z,0
2022-10-15T02:52:31.684Z,0
2022-10-15T02:53:32.278Z,0
2022-10-15T02:54:32.877Z,0
2022-10-15T02:55:33.473Z,0
2022-10-15T02:56:34.075Z,0
2022-10-15T02:57:34.670Z,0
2022-10-15T02:58:35.286Z,0
2022-10-15T02:59:35.883Z,0
2022-10-15T03:00:36.483Z,0
2022-10-15T03:01:37.080Z,0
2022-10-15T03:02:37.676Z,0
2022-10-15T03:03:38.332Z,0
2022-10-15T03:04:38.931Z,0
2022-10-15T03:05:39.585Z,0
2022-10-15T03:06:40.181Z,0
2022-10-15T03:07:40.780Z,0
2022-10-15T03:08:41.377Z,0
2022-10-15T03:09:41.974Z,0
2022-10-15T03:10:42.572Z,0
2022-10-15T03:11:43.168Z,0
2022-10-15T03:12:43.765Z,0
2022-10-15T03:13:44.381Z,0
2022-10-15T03:14:44.978Z,0
2022-10-15T03:15:45.573Z,0
2022-10-15T03:16:46.172Z,0
2022-10-15T03:17:46.794Z,0
2022-10-15T03:18:47.391Z,0
2022-10-15T03:19:47.989Z,0
2022-10-15T03:20:48.586Z,0
2022-10-15T03:21:49.182Z,0
2022-10-15T03:22:49.782Z,0
2022-10-15T03:23:50.379Z,0
2022-10-15T03:24:50.977Z,0
2022-10-15T03:25:51.574Z,0
2022-10-15T03:26:52.172Z,0
2022-10-15T03:27:52.777Z,0
2022-10-15T03:28:53.440Z,0
2022-10-15T03:29:53.996Z,0
2022-10-15T03:30:54.681Z,0
2022-10-15T03:31:55.207Z,0
2022-10-15T03:32:55.811Z,0
2022-10-15T03:33:56.402Z,0
2022-10-15T03:34:57.000Z,0
2022-10-15T03:35:57.594Z,0
2022-10-15T03:36:58.192Z,0
2022-10-15T03:37:58.790Z,0
2022-10-15T03:38:59.387Z,0
2022-10-15T03:39:59.983Z,0
2022-10-15T03:41:00.581Z,0
2022-10-15T03:42:01.178Z,0
2022-10-15T03:43:01.777Z,0
2022-10-15T03:44:02.373Z,0
2022-10-15T03:45:02.997Z,0
2022-10-15T03:46:03.601Z,0
2022-10-15T03:47:04.187Z,0
2022-10-15T03:48:04.786Z,0
2022-10-15T03:49:05.388Z,0
2022-10-15T03:50:05.985Z,0
2022-10-15T03:51:06.579Z,0
2022-10-15T03:52:07.176Z,0
2022-10-15T03:53:07.774Z,0
2022-10-15T03:54:08.372Z,0
2022-10-15T03:55:08.970Z,0
2022-10-15T03:56:09.567Z,0
2022-10-15T03:57:10.170Z,0
2022-10-15T03:58:10.762Z,0
2022-10-15T03:59:11.360Z,0
2022-10-15T04:00:11.956Z,0
2022-10-15T04:01:12.615Z,0
2022-10-15T04:02:13.255Z,0
2022-10-15T04:03:13.856Z,0
2022-10-15T04:04:14.455Z,0
2022-10-15T04:05:15.051Z,0
2022-10-15T04:06:15.648Z,0
2022-10-15T04:07:16.247Z,0
2022-10-15T04:08:16.843Z,0
2022-10-15T04:09:17.443Z,0
2022-10-15T04:10:18.041Z,0
2022-10-15T04:11:18.658Z,0
2022-10-15T04:12:19.254Z,0
2022-10-15T04:13:19.852Z,0
2022-10-15T04:14:20.450Z,0
2022-10-15T04:15:21.045Z,0
2022-10-15T04:16:21.644Z,0
2022-10-15T04:17:22.241Z,0
2022-10-15T04:18:22.859Z,0
2022-10-15T04:19:23.459Z,0
2022-10-15T04:20:24.056Z,0
2022-10-15T04:21:24.658Z,0
2022-10-15T04:22:25.444Z,0
2022-10-15T04:23:26.220Z,0
2022-10-15T04:24:26.818Z,0
2022-10-15T04:25:27.415Z,0
2022-10-15T04:26:28.014Z,0
2022-10-15T04:27:28.633Z,0
2022-10-15T04:28:29.265Z,0
2022-10-15T04:29:29.824Z,0
2022-10-15T04:30:30.422Z,0
2022-10-15T04:31:31.041Z,0
2022-10-15T04:32:31.638Z,0
2022-10-15T04:33:32.237Z,0
2022-10-15T04:34:32.833Z,0
2022-10-15T04:35:33.430Z,0
2022-10-15T04:36:34.027Z,0
2022-10-15T04:37:34.625Z,0
2022-10-15T04:38:35.222Z,0
2022-10-15T04:39:35.824Z,0
2022-10-15T04:40:36.419Z,0
2022-10-15T04:41:37.015Z,0
2022-10-15T04:42:37.614Z,0
2022-10-15T04:43:38.231Z,0
2022-10-15T04:44:38.848Z,0
2022-10-15T04:45:39.447Z,0
2022-10-15T04:46:40.088Z,0
2022-10-15T04:47:40.641Z,0
2022-10-15T04:48:43.191Z,0
2022-10-15T04:49:42.831Z,0
2022-10-15T04:50:43.429Z,0
2022-10-15T04:51:44.028Z,0
2022-10-15T04:52:44.625Z,0
2022-10-15T04:53:45.225Z,0
2022-10-15T04:54:45.823Z,0
2022-10-15T04:55:46.422Z,0
2022-10-15T04:56:47.018Z,0
2022-10-15T04:57:47.618Z,0
2022-10-15T04:58:48.218Z,0
2022-10-15T04:59:51.539Z,0
2022-10-15T05:00:50.422Z,0
2022-10-15T05:01:51.097Z,0
2022-10-15T05:02:51.633Z,0
2022-10-15T05:03:52.232Z,0
2022-10-15T05:04:52.828Z,0
2022-10-15T05:05:53.426Z,0
2022-10-15T05:06:54.023Z,0
2022-10-15T05:07:54.622Z,0
2022-10-15T05:08:55.217Z,0
2022-10-15T05:09:55.827Z,0
2022-10-15T05:10:56.414Z,0
2022-10-15T05:11:57.014Z,0
2022-10-15T05:12:57.611Z,0
2022-10-15T05:13:58.208Z,0
2022-10-15T05:14:58.805Z,0
2022-10-15T05:15:59.404Z,0
2022-10-15T05:16:59.999Z,0
2022-10-15T05:18:00.598Z,0
2022-10-15T05:19:01.194Z,0
2022-10-15T05:20:01.794Z,0
2022-10-15T05:21:02.390Z,0
2022-10-15T05:22:02.992Z,0
2022-10-15T05:23:03.585Z,0
2022-10-15T05:24:04.186Z,0
2022-10-15T05:25:04.783Z,0
2022-10-15T05:26:05.385Z,0
2022-10-15T05:27:05.979Z,0
2022-10-15T05:28:06.577Z,0
2022-10-15T05:29:07.175Z,0
2022-10-15T05:30:07.774Z,0
2022-10-15T05:31:08.372Z,0
2022-10-15T05:32:09.055Z,0
2022-10-15T05:33:09.637Z,0
2022-10-15T05:34:10.240Z,0
2022-10-15T05:35:10.834Z,0
2022-10-15T05:36:11.437Z,0
2022-10-15T05:37:12.034Z,5
2022-10-15T05:38:12.636Z,5
2022-10-15T05:39:13.234Z,5
2022-10-15T05:40:15.889Z,5
2022-10-15T05:41:14.449Z,5
2022-10-15T05:42:15.055Z,11
2022-10-15T05:43:15.650Z,11
2022-10-15T05:44:16.253Z,11
2022-10-15T05:45:16.847Z,11
2022-10-15T05:46:17.449Z,16
2022-10-15T05:47:18.063Z,16
2022-10-15T05:48:18.651Z,16
2022-10-15T05:49:19.260Z,22
2022-10-15T05:50:19.852Z,22
2022-10-15T05:51:20.472Z,28
2022-10-15T05:52:21.532Z,28
2022-10-15T05:53:22.420Z,28
2022-10-15T05:54:23.041Z,33
2022-10-15T05:55:23.662Z,33
2022-10-15T05:56:24.263Z,39
2022-10-15T05:57:24.869Z,45
2022-10-15T05:58:25.467Z,45
2022-10-15T05:59:26.066Z,50
2022-10-15T06:00:26.668Z,50
2022-10-15T06:01:27.269Z,56
2022-10-15T06:02:28.564Z,56
2022-10-15T06:03:29.486Z,61
2022-10-15T06:04:33.217Z,61
2022-10-15T06:05:31.684Z,67
2022-10-15T06:06:32.288Z,73
2022-10-15T06:07:32.890Z,73
2022-10-15T06:08:33.493Z,78
2022-10-15T06:09:34.092Z,84
2022-10-15T06:10:34.693Z,90
2022-10-15T06:11:35.318Z,95
2022-10-15T06:12:35.922Z,101
2022-10-15T06:13:36.525Z,101
2022-10-15T06:14:37.125Z,106
2022-10-15T06:15:37.727Z,106
2022-10-15T06:16:38.332Z,112
2022-10-15T06:17:38.935Z,112
2022-10-15T06:18:39.540Z,123
2022-10-15T06:19:40.147Z,129
2022-10-15T06:20:40.748Z,135
2022-10-15T06:21:41.368Z,140
2022-10-15T06:22:41.974Z,146
2022-10-15T06:23:42.575Z,151
2022-10-15T06:24:43.181Z,157
2022-10-15T06:25:43.781Z,163
2022-10-15T06:26:44.384Z,163
2022-10-15T06:27:45.016Z,168
2022-10-15T06:28:45.656Z,168
2022-10-15T06:29:46.229Z,174
2022-10-15T06:30:46.832Z,174
2022-10-15T06:31:47.435Z,180
2022-10-15T06:32:48.039Z,185
2022-10-15T06:33:48.643Z,185
2022-10-15T06:34:49.246Z,185
2022-10-15T06:35:49.849Z,180
2022-10-15T06:36:50.453Z,180
2022-10-15T06:37:51.056Z,180
2022-10-15T06:38:51.659Z,180
2022-10-15T06:39:52.266Z,180
2022-10-15T06:40:52.865Z,185
2022-10-15T06:41:53.469Z,191
2022-10-15T06:42:54.074Z,196
2022-10-15T06:43:54.801Z,202
2022-10-15T06:44:55.394Z,219
2022-10-15T06:45:55.998Z,241
2022-10-15T06:46:56.601Z,258
2022-10-15T06:47:57.204Z,275
2022-10-15T06:48:57.804Z,286
2022-10-15T06:49:58.407Z,292
2022-10-15T06:50:59.009Z,298
2022-10-15T06:52:02.673Z,286
2022-10-15T06:53:00.387Z,286
2022-10-15T06:54:01.021Z,292
2022-10-15T06:55:01.623Z,281
2022-10-15T06:56:02.225Z,264
2022-10-15T06:57:02.829Z,281
2022-10-15T06:58:03.433Z,298
2022-10-15T06:59:04.036Z,315
2022-10-15T07:00:04.639Z,298
2022-10-15T07:01:05.242Z,292
2022-10-15T07:02:05.848Z,281
2022-10-15T07:03:06.452Z,286
2022-10-15T07:04:07.055Z,298
2022-10-15T07:05:07.658Z,298
2022-10-15T07:06:08.262Z,309
2022-10-15T07:07:08.865Z,326
2022-10-15T07:08:09.463Z,343
2022-10-15T07:09:10.067Z,348
2022-10-15T07:10:10.705Z,360
2022-10-15T07:11:11.274Z,365
2022-10-15T07:12:11.877Z,365
2022-10-15T07:13:12.479Z,365
2022-10-15T07:14:13.083Z,376
2022-10-15T07:15:13.687Z,382
2022-10-15T07:16:14.289Z,393
2022-10-15T07:17:14.895Z,393
2022-10-15T07:18:15.498Z,393
2022-10-15T07:19:16.119Z,405
2022-10-15T07:20:20.145Z,410
2022-10-15T07:21:18.319Z,421
2022-10-15T07:22:18.923Z,433
2022-10-15T07:23:22.836Z,444
2022-10-15T07:24:21.127Z,444
2022-10-15T07:25:21.729Z,450
2022-10-15T07:26:22.337Z,444
2022-10-15T07:27:22.941Z,444
2022-10-15T07:28:23.599Z,427
2022-10-15T07:29:24.191Z,393
2022-10-15T07:30:24.844Z,376
2022-10-15T07:31:25.398Z,360
2022-10-15T07:32:26.290Z,348
2022-10-15T07:33:27.029Z,348
2022-10-15T07:34:27.633Z,326
2022-10-15T07:35:28.236Z,320
2022-10-15T07:36:28.841Z,320
2022-10-15T07:37:29.442Z,315
2022-10-15T07:38:30.047Z,303
2022-10-15T07:39:30.648Z,315
2022-10-15T07:40:31.253Z,343
2022-10-15T07:41:31.857Z,348
2022-10-15T07:42:32.462Z,365
2022-10-15T07:43:33.071Z,388
2022-10-15T07:44:33.685Z,360
2022-10-15T07:45:34.289Z,343
2022-10-15T07:46:34.911Z,343
2022-10-15T07:47:35.512Z,337
2022-10-15T07:48:36.119Z,320
2022-10-15T07:49:36.739Z,303
2022-10-15T07:50:40.337Z,303
2022-10-15T07:51:38.940Z,309
2022-10-15T07:52:39.544Z,281
2022-10-15T07:53:40.148Z,270
2022-10-15T07:54:40.756Z,270
2022-10-15T07:55:41.363Z,275
2022-10-15T07:56:41.959Z,286
2022-10-15T07:57:42.560Z,303
2022-10-15T07:58:43.166Z,292
2022-10-15T07:59:43.766Z,298
2022-10-15T08:00:44.371Z,331
2022-10-15T08:01:47.129Z,320
2022-10-15T08:02:46.570Z,326
2022-10-15T08:03:47.178Z,303
2022-10-15T08:04:47.774Z,281
2022-10-15T08:05:48.377Z,286
2022-10-15T08:06:48.981Z,286
2022-10-15T08:07:49.583Z,303
2022-10-15T08:08:50.186Z,309
2022-10-15T08:09:50.794Z,270
2022-10-15T08:10:51.392Z,286
2022-10-15T08:11:51.992Z,286
2022-10-15T08:12:52.596Z,320
2022-10-15T08:13:53.195Z,348
2022-10-15T08:14:53.800Z,433
2022-10-15T08:15:57.629Z,500
2022-10-15T08:16:56.000Z,528
2022-10-15T08:17:56.603Z,568
2022-10-15T08:18:57.207Z,528
2022-10-15T08:19:57.808Z,579
2022-10-15T08:20:58.412Z,607
2022-10-15T08:21:59.015Z,607
2022-10-15T08:22:59.618Z,613
2022-10-15T08:24:00.230Z,641
2022-10-15T08:25:00.826Z,641
2022-10-15T08:26:01.449Z,646
2022-10-15T08:27:02.051Z,691
2022-10-15T08:28:02.691Z,770
2022-10-15T08:29:03.332Z,720
2022-10-15T08:30:03.910Z,765
2022-10-15T08:31:05.861Z,810
2022-10-15T08:32:06.108Z,855
2022-10-15T08:33:06.718Z,855
2022-10-15T08:34:07.316Z,804
2022-10-15T08:35:07.919Z,860
2022-10-15T08:36:08.525Z,815
2022-10-15T08:37:09.187Z,804
2022-10-15T08:38:09.755Z,945
2022-10-15T08:39:10.360Z,911
2022-10-15T08:40:10.962Z,793
2022-10-15T08:41:11.564Z,793
2022-10-15T08:42:12.172Z,810
2022-10-15T08:43:12.764Z,877
2022-10-15T08:44:13.366Z,1063
2022-10-15T08:45:13.968Z,1321
2022-10-15T08:46:14.570Z,1299
2022-10-15T08:47:15.175Z,1102
2022-10-15T08:48:15.779Z,1310
2022-10-15T08:49:16.379Z,1524
2022-10-15T08:50:16.983Z,1164
2022-10-15T08:51:17.585Z,1524
2022-10-15T08:52:18.185Z,1237
2022-10-15T08:53:18.788Z,1293
2022-10-15T08:54:19.399Z,1563
2022-10-15T08:55:20.098Z,1316
2022-10-15T08:56:20.703Z,1170
2022-10-15T08:57:21.385Z,1164
2022-10-15T08:58:22.106Z,1130
2022-10-15T08:59:22.709Z,1108
2022-10-15T09:00:23.311Z,1096
2022-10-15T09:01:23.915Z,1276
2022-10-15T09:02:24.516Z,1361
2022-10-15T09:03:25.254Z,1681
2022-10-15T09:05:26.434Z,1783
2022-10-15T09:06:27.034Z,1451
2022-10-15T09:07:27.658Z,1372
2022-10-15T09:08:28.262Z,1220
2022-10-15T09:09:28.869Z,1355
2022-10-15T09:10:29.469Z,1333
2022-10-15T09:11:30.073Z,1237
2022-10-15T09:12:30.675Z,1175
2022-10-15T09:13:31.311Z,1248
2022-10-15T09:14:31.891Z,1338
2022-10-15T09:15:32.494Z,1518
2022-10-15T09:16:33.095Z,1558
2022-10-15T09:17:33.700Z,1462
2022-10-15T09:18:34.326Z,1479
2022-10-15T09:19:34.949Z,1276
2022-10-15T09:20:35.568Z,1237
2022-10-15T09:21:36.172Z,1057
2022-10-15T09:22:36.812Z,956
2022-10-15T09:23:37.385Z,939
2022-10-15T09:24:38.005Z,748
2022-10-15T09:25:38.611Z,708
2022-10-15T09:26:39.212Z,1153
2022-10-15T09:27:39.816Z,1687
2022-10-15T09:28:40.451Z,2036
2022-10-15T09:29:41.034Z,1980
2022-10-15T09:30:41.637Z,1918
2022-10-15T09:31:42.241Z,1873
2022-10-15T09:32:42.843Z,1822
2022-10-15T09:33:43.446Z,1726
2022-10-15T09:34:44.051Z,1698
2022-10-15T09:35:44.654Z,1726
2022-10-15T09:36:45.256Z,1788
2022-10-15T09:37:45.859Z,1794
2022-10-15T09:38:46.461Z,1805
2022-10-15T09:39:47.067Z,1822
2022-10-15T09:40:47.666Z,1839
2022-10-15T09:41:48.268Z,1912
2022-10-15T09:42:48.871Z,2025
2022-10-15T09:43:49.496Z,2081
2022-10-15T09:44:50.099Z,2098
2022-10-15T09:45:50.702Z,2109
2022-10-15T09:46:51.325Z,2120
2022-10-15T09:47:51.906Z,2160
2022-10-15T09:48:52.508Z,2188
2022-10-15T09:49:53.111Z,2210
2022-10-15T09:50:53.735Z,2199
2022-10-15T09:51:54.315Z,2210
2022-10-15T09:52:54.919Z,2109
2022-10-15T09:53:55.522Z,2098
2022-10-15T09:54:56.128Z,2070
2022-10-15T09:55:56.729Z,2092
2022-10-15T09:56:57.332Z,2002
2022-10-15T09:57:57.957Z,2098
2022-10-15T09:58:58.559Z,2058
2022-10-15T09:59:59.186Z,2092
2022-10-15T10:00:59.786Z,1209
2022-10-15T10:02:00.434Z,2171
2022-10-15T10:03:01.007Z,883
2022-10-15T10:04:01.611Z,1535
2022-10-15T10:05:03.291Z,1215
2022-10-15T10:06:03.810Z,1260
2022-10-15T10:07:04.415Z,1423
2022-10-15T10:08:05.019Z,1366
2022-10-15T10:09:05.622Z,2671
2022-10-15T10:10:06.225Z,1563
2022-10-15T10:11:06.828Z,1102
2022-10-15T10:12:07.434Z,1108
2022-10-15T10:13:08.038Z,1372
2022-10-15T10:14:08.638Z,1417
2022-10-15T10:15:09.244Z,1338
2022-10-15T10:16:09.858Z,1237
2022-10-15T10:17:10.450Z,1181
2022-10-15T10:18:11.051Z,2728
2022-10-15T10:19:11.654Z,1828
2022-10-15T10:20:12.258Z,1237
2022-10-15T10:21:12.859Z,1147
2022-10-15T10:22:13.461Z,2160
2022-10-15T10:23:14.063Z,2728
2022-10-15T10:24:14.668Z,2671
2022-10-15T10:25:15.270Z,2700
2022-10-15T10:26:15.873Z,2874
2022-10-15T10:27:16.475Z,2953
2022-10-15T10:28:17.145Z,2975
2022-10-15T10:29:32.849Z,2795
2022-10-15T10:30:19.319Z,2829
2022-10-15T10:31:19.924Z,2801
2022-10-15T10:32:20.525Z,2851
2022-10-15T10:33:21.128Z,2896
2022-10-15T10:34:21.732Z,2885
2022-10-15T10:35:22.334Z,2401
2022-10-15T10:36:22.939Z,1861
2022-10-15T10:37:23.805Z,2356
2022-10-15T10:38:24.561Z,2767
2022-10-15T10:39:25.178Z,2790
2022-10-15T10:40:25.780Z,2806
2022-10-15T10:41:26.382Z,2981
2022-10-15T10:42:26.988Z,2666
2022-10-15T10:43:27.586Z,3043
2022-10-15T10:44:28.190Z,1541
2022-10-15T10:45:28.804Z,1428
2022-10-15T10:46:29.394Z,984
2022-10-15T10:47:29.997Z,866
2022-10-15T10:48:30.599Z,871
2022-10-15T10:49:31.203Z,798
2022-10-15T10:50:31.804Z,736
2022-10-15T10:51:32.406Z,646
2022-10-15T10:52:33.007Z,635
2022-10-15T10:53:33.612Z,793
2022-10-15T10:54:34.255Z,776
2022-10-15T10:55:34.814Z,776
2022-10-15T10:56:35.419Z,855
2022-10-15T10:57:36.020Z,984
2022-10-15T10:58:36.621Z,1113
2022-10-15T10:59:37.230Z,1760
2022-10-15T11:00:37.868Z,1327
2022-10-15T11:01:38.450Z,1693
2022-10-15T11:02:39.067Z,1451
2022-10-15T11:03:39.674Z,1243
2022-10-15T11:04:40.291Z,1271
2022-10-15T11:05:40.913Z,1248
2022-10-15T11:06:41.518Z,1215
2022-10-15T11:07:42.122Z,1237
2022-10-15T11:08:42.725Z,1271
2022-10-15T11:09:43.328Z,1490
2022-10-15T11:10:43.937Z,1518
2022-10-15T11:11:44.553Z,1485
2022-10-15T11:12:45.160Z,1423
2022-10-15T11:13:45.762Z,1293
2022-10-15T11:14:46.363Z,1473
2022-10-15T11:15:46.971Z,1344
2022-10-15T11:16:47.588Z,1434
2022-10-15T11:17:48.193Z,1462
2022-10-15T11:18:48.794Z,1395
2022-10-15T11:20:58.838Z,2373
2022-10-15T11:21:52.499Z,3465
2022-10-15T11:22:53.106Z,2998
2022-10-15T11:23:53.706Z,1586
2022-10-15T11:25:05.906Z,1080
2022-10-15T11:25:55.903Z,1040
2022-10-15T11:27:10.051Z,945
2022-10-15T11:27:58.101Z,1018
2022-10-15T11:28:58.781Z,1170
2022-10-15T11:29:59.362Z,1625
2022-10-15T11:30:59.964Z,1490
2022-10-15T11:32:10.272Z,1288
2022-10-15T11:33:07.599Z,1524
2022-10-15T11:34:03.625Z,1985
2022-10-15T11:35:04.244Z,1974
2022-10-15T11:36:04.846Z,1625
2022-10-15T11:37:05.450Z,3206
2022-10-15T11:38:06.047Z,3251
2022-10-15T11:39:06.649Z,3121
2022-10-15T11:40:07.257Z,2716
2022-10-15T11:41:07.849Z,2812
2022-10-15T11:42:08.454Z,2823
2022-10-15T11:43:09.081Z,2700
2022-10-15T11:44:09.703Z,2593
2022-10-15T11:45:10.302Z,2610
2022-10-15T11:46:10.905Z,2621
2022-10-15T11:47:11.503Z,2503
2022-10-15T11:48:12.107Z,2441
2022-10-15T11:49:12.707Z,2615
2022-10-15T11:50:13.316Z,2778
2022-10-15T11:51:13.907Z,3088
2022-10-15T11:52:14.509Z,3346
2022-10-15T11:53:15.112Z,3391
2022-10-15T11:54:15.716Z,3341
2022-10-15T11:55:16.313Z,3487
2022-10-15T11:56:16.920Z,3425
2022-10-15T11:57:17.515Z,3386
2022-10-15T11:58:18.116Z,3414
2022-10-15T11:59:18.718Z,3459
2022-10-15T12:00:19.349Z,1670
2022-10-15T12:01:19.962Z,3335
2022-10-15T12:02:20.674Z,2216
2022-10-15T12:03:21.329Z,3465
2022-10-15T12:04:21.935Z,3526
2022-10-15T12:05:22.503Z,1794
2022-10-15T12:06:23.105Z,3436
2022-10-15T12:07:23.706Z,3459
2022-10-15T12:08:24.344Z,3352
2022-10-15T12:09:24.907Z,3436
2022-10-15T12:10:25.512Z,3521
2022-10-15T12:11:26.113Z,3510
2022-10-15T12:12:26.879Z,3352
2022-10-15T12:13:27.507Z,3369
2022-10-15T12:14:28.117Z,3397
2022-10-15T12:15:28.716Z,3431
2022-10-15T12:16:29.323Z,3397
2022-10-15T12:17:29.942Z,3436
2022-10-15T12:18:30.564Z,3330
2022-10-15T12:19:31.165Z,3228
2022-10-15T12:20:31.768Z,3099
2022-10-15T12:21:32.370Z,3003
2022-10-15T12:22:34.129Z,2908
2022-10-15T12:23:34.566Z,2767
2022-10-15T12:24:35.167Z,2711
2022-10-15T12:25:35.774Z,1203
2022-10-15T12:26:36.369Z,990
2022-10-15T12:27:36.969Z,939
2022-10-15T12:28:37.588Z,781
2022-10-15T12:29:38.167Z,843
2022-10-15T12:30:38.767Z,933
2022-10-15T12:31:39.367Z,1046
2022-10-15T12:32:39.970Z,1248
2022-10-15T12:33:40.571Z,1203
2022-10-15T12:34:41.175Z,1085
2022-10-15T12:35:41.776Z,1524
2022-10-15T12:36:42.377Z,1451
2022-10-15T12:37:42.975Z,1018
2022-10-15T12:38:43.582Z,877
2022-10-15T12:39:59.510Z,939
2022-10-15T12:40:45.773Z,1023
2022-10-15T12:41:46.387Z,1023
2022-10-15T12:42:47.006Z,1046
2022-10-15T12:43:47.603Z,995
2022-10-15T12:44:48.204Z,922
2022-10-15T12:45:48.802Z,888
2022-10-15T12:46:49.402Z,855
2022-10-15T12:47:50.004Z,1102
2022-10-15T12:48:50.624Z,1299
2022-10-15T12:49:51.228Z,1181
2022-10-15T12:50:51.827Z,1063
2022-10-15T12:51:56.010Z,1012
2022-10-15T12:52:54.021Z,866
2022-10-15T12:53:54.623Z,725
2022-10-15T12:54:58.947Z,630
2022-10-15T12:55:56.814Z,731
2022-10-15T12:56:57.419Z,765
2022-10-15T12:57:58.041Z,759
2022-10-15T12:58:58.640Z,742
2022-10-15T12:59:59.239Z,697
2022-10-15T13:00:59.905Z,658
2022-10-15T13:02:00.452Z,669
2022-10-15T13:03:01.064Z,675
2022-10-15T13:04:01.674Z,641
2022-10-15T13:05:02.297Z,742
2022-10-15T13:06:02.893Z,900
2022-10-15T13:07:03.493Z,922
2022-10-15T13:08:04.094Z,838
2022-10-15T13:09:04.696Z,911
2022-10-15T13:10:05.313Z,1479
2022-10-15T13:11:05.918Z,2401
2022-10-15T13:12:06.543Z,1473
2022-10-15T13:13:07.141Z,945
2022-10-15T13:14:07.740Z,725
2022-10-15T13:15:08.338Z,675
2022-10-15T13:16:08.936Z,663
2022-10-15T13:17:09.537Z,708
2022-10-15T13:18:10.138Z,776
2022-10-15T13:19:10.737Z,742
2022-10-15T13:20:11.397Z,641
2022-10-15T13:21:13.783Z,585
2022-10-15T13:22:13.527Z,618
2022-10-15T13:23:29.037Z,635
2022-10-15T13:24:14.744Z,748
2022-10-15T13:25:15.344Z,905
2022-10-15T13:26:15.943Z,990
2022-10-15T13:27:16.544Z,961
2022-10-15T13:28:17.181Z,866
2022-10-15T13:29:17.785Z,765
2022-10-15T13:30:18.441Z,720
2022-10-15T13:31:19.018Z,646
2022-10-15T13:32:19.614Z,596
2022-10-15T13:33:20.214Z,646
2022-10-15T13:34:20.812Z,781
2022-10-15T13:35:21.412Z,894
2022-10-15T13:36:22.010Z,888
2022-10-15T13:37:22.646Z,838
2022-10-15T13:38:23.231Z,810
2022-10-15T13:39:23.926Z,810
2022-10-15T13:40:24.469Z,748
2022-10-15T13:41:25.045Z,635
2022-10-15T13:42:25.943Z,607
2022-10-15T13:43:26.784Z,573
2022-10-15T13:44:27.385Z,573
2022-10-15T13:45:27.986Z,556
2022-10-15T13:46:28.585Z,534
2022-10-15T13:47:29.186Z,483
2022-10-15T13:48:29.882Z,433
2022-10-15T13:49:30.401Z,365
2022-10-15T13:50:31.022Z,343
2022-10-15T13:51:31.618Z,354
2022-10-15T13:52:32.217Z,438
2022-10-15T13:53:32.816Z,495
2022-10-15T13:54:33.415Z,393
2022-10-15T13:55:34.016Z,388
2022-10-15T13:56:34.616Z,427
2022-10-15T13:57:35.266Z,382
2022-10-15T13:58:35.865Z,320
2022-10-15T13:59:36.467Z,286
2022-10-15T14:00:37.146Z,376
2022-10-15T14:01:37.684Z,466
2022-10-15T14:02:38.291Z,472
2022-10-15T14:03:38.906Z,466
2022-10-15T14:04:39.508Z,416
2022-10-15T14:05:40.121Z,320
2022-10-15T14:06:40.745Z,298
2022-10-15T14:07:41.338Z,303
2022-10-15T14:08:41.936Z,286
2022-10-15T14:09:42.535Z,315
2022-10-15T14:10:43.140Z,376
2022-10-15T14:11:43.734Z,455
2022-10-15T14:12:44.333Z,551
2022-10-15T14:13:44.934Z,540
2022-10-15T14:14:45.535Z,393
2022-10-15T14:15:46.134Z,343